Time;durP1;ratioP1;P1;durP2;ratioP2;P2;SDS_P1;SDS_P2;PMS_P1;PMS_P2;Temp;Humidity;BMP_temperature;BMP_pressure;BME280_temperature;BME280_humidity;BME280_pressure;Samples;Min_cycle;Max_cycle;Signal;HPM_P1;HPM_P2
2021/06/23 00:02:16;;;;;;;5.43;4.90;;;;;;;21.55;86.85;96352.66;5105864;28;20201;-57
2021/06/23 00:04:43;;;;;;;4.60;4.30;;;;;;;21.55;87.94;96347.31;5094583;28;20656;-57
2021/06/23 00:07:08;;;;;;;4.40;4.10;;;;;;;21.62;88.02;96346.94;5094773;28;20201;-57
2021/06/23 00:09:33;;;;;;;4.73;4.43;;;;;;;21.54;88.56;96344.94;5094844;28;20849;-57
2021/06/23 00:11:59;;;;;;;4.87;4.43;;;;;;;21.64;88.43;96344.75;5094381;28;20260;-57
2021/06/23 00:14:24;;;;;;;4.20;3.90;;;;;;;21.70;88.43;96347.06;5094447;28;20182;-57
2021/06/23 00:16:50;;;;;;;5.40;4.90;;;;;;;21.78;88.21;96346.34;5097222;28;20178;-57
2021/06/23 00:19:16;;;;;;;4.90;4.60;;;;;;;21.79;88.63;96345.31;5094674;28;20170;-57
2021/06/23 00:21:41;;;;;;;5.63;5.13;;;;;;;21.85;88.37;96356.72;5094038;28;20173;-58
2021/06/23 00:24:07;;;;;;;5.50;5.00;;;;;;;21.87;88.12;96355.31;5094463;28;20800;-57
2021/06/23 00:26:33;;;;;;;5.77;5.27;;;;;;;21.87;88.26;96360.66;5094568;28;20265;-56
2021/06/23 00:28:59;;;;;;;5.47;4.93;;;;;;;21.86;88.77;96347.56;5094355;28;20170;-57
2021/06/23 00:31:27;;;;;;;5.97;5.23;;;;;;;21.91;88.20;96345.59;5101566;28;20736;-57
2021/06/23 00:33:53;;;;;;;5.80;5.30;;;;;;;21.82;88.58;96350.06;5106332;28;20518;-57
2021/06/23 00:36:19;;;;;;;6.30;4.70;;;;;;;21.78;89.15;96349.03;5094389;28;20495;-57
2021/06/23 00:38:44;;;;;;;5.10;4.70;;;;;;;21.84;88.74;96350.56;5094038;28;20561;-57
2021/06/23 00:41:16;;;;;;;5.27;4.93;;;;;;;21.84;88.84;96345.19;5099259;28;20177;-57
2021/06/23 00:43:41;;;;;;;8.20;5.87;;;;;;;21.69;89.73;96350.81;5113809;28;20660;-57
2021/06/23 00:46:07;;;;;;;6.13;5.30;;;;;;;21.70;89.72;96352.41;5114569;28;20565;-58
2021/06/23 00:48:32;;;;;;;5.67;5.17;;;;;;;21.48;90.58;96352.25;5114402;28;20173;-56
2021/06/23 00:51:00;;;;;;;5.53;5.13;;;;;;;21.60;90.21;96349.91;5110506;28;20178;-57
2021/06/23 00:53:26;;;;;;;5.40;5.00;;;;;;;21.69;89.65;96347.31;5104653;28;20190;-56
2021/06/23 00:55:54;;;;;;;5.70;5.20;;;;;;;21.68;89.94;96354.56;5113323;28;20904;-56
2021/06/23 00:58:20;;;;;;;6.03;5.57;;;;;;;21.74;89.47;96345.34;5114050;28;20177;-57
2021/06/23 01:00:46;;;;;;;6.70;6.00;;;;;;;21.71;89.53;96356.66;5114076;28;20468;-57
2021/06/23 01:03:12;;;;;;;6.60;6.10;;;;;;;21.60;90.30;96352.56;5113681;28;20455;-57
2021/06/23 01:05:38;;;;;;;6.73;6.23;;;;;;;21.61;90.66;96361.41;5111768;28;20490;-57
2021/06/23 01:08:07;;;;;;;6.50;5.90;;;;;;;21.68;90.60;96359.94;5102969;28;20249;-57
2021/06/23 01:10:35;;;;;;;7.50;7.00;;;;;;;21.71;90.21;96356.66;5099663;28;20452;-57
2021/06/23 01:13:38;;;;;;;8.00;7.30;;;;;;;21.80;89.82;96349.56;5075711;28;20400;-57
2021/06/23 01:16:08;;;;;;;7.30;6.70;;;;;;;21.69;90.29;96358.81;5098364;28;20981;-57
2021/06/23 01:18:39;;;;;;;7.70;7.00;;;;;;;21.75;90.10;96346.16;5113168;28;20415;-56
2021/06/23 01:21:06;;;;;;;7.50;6.80;;;;;;;21.78;89.87;96345.53;5113425;28;20422;-57
2021/06/23 01:23:33;;;;;;;8.20;7.50;;;;;;;21.87;89.32;96335.81;5113319;28;20451;-57
2021/06/23 01:25:59;;;;;;;8.37;7.67;;;;;;;21.78;89.98;96332.16;5090961;28;20427;-57
2021/06/23 01:28:24;;;;;;;10.50;8.03;;;;;;;21.82;89.85;96328.66;5093572;28;20488;-58
2021/06/23 01:30:50;;;;;;;9.70;8.07;;;;;;;21.79;89.85;96334.59;5093320;28;20174;-56
2021/06/23 01:33:16;;;;;;;8.40;7.70;;;;;;;21.78;89.95;96341.00;5093002;28;20197;-57
2021/06/23 01:35:45;;;;;;;8.40;7.80;;;;;;;21.80;89.64;96332.69;5094908;28;20174;-57
2021/06/23 01:38:11;;;;;;;8.43;7.73;;;;;;;21.69;89.63;96332.06;5101308;28;20186;-57
2021/06/23 01:40:36;;;;;;;8.23;7.50;;;;;;;21.45;90.81;96340.25;5103943;28;20791;-57
2021/06/23 01:43:02;;;;;;;7.80;7.10;;;;;;;21.39;90.95;96333.44;5094948;28;20189;-57
2021/06/23 01:45:27;;;;;;;8.00;7.30;;;;;;;21.52;90.82;96329.19;5113821;28;20193;-57
2021/06/23 01:47:53;;;;;;;8.00;7.30;;;;;;;21.61;90.50;96321.28;5093650;28;20300;-57
2021/06/23 01:50:21;;;;;;;8.23;7.43;;;;;;;21.44;91.50;96314.63;5093046;28;20255;-57
2021/06/23 01:52:47;;;;;;;9.53;7.87;;;;;;;21.42;91.99;96314.13;5092772;28;20643;-57
2021/06/23 01:55:27;;;;;;;8.60;7.90;;;;;;;21.55;90.92;96307.19;5104818;28;20407;-57
2021/06/23 01:57:59;;;;;;;7.70;7.00;;;;;;;21.47;91.04;96313.22;5117018;28;20173;-57
2021/06/23 02:00:30;;;;;;;8.60;7.80;;;;;;;21.44;91.20;96311.16;5117757;28;20775;-57
2021/06/23 02:03:01;;;;;;;8.27;7.57;;;;;;;21.35;91.85;96315.59;5116957;28;20450;-57
2021/06/23 02:05:41;;;;;;;9.43;8.40;;;;;;;21.40;91.61;96307.47;5115928;28;20480;-57
2021/06/23 02:08:42;;;;;;;8.87;7.97;;;;;;;21.49;91.03;96308.38;5099177;28;20443;-57
2021/06/23 02:11:26;;;;;;;9.47;8.20;;;;;;;21.54;90.54;96296.81;5034487;28;20461;-58
2021/06/23 02:14:04;;;;;;;10.30;9.40;;;;;;;21.56;90.17;96299.97;5108435;28;20430;-56
2021/06/23 02:16:29;;;;;;;8.73;7.77;;;;;;;21.45;90.53;96297.47;5111650;28;21034;-56
2021/06/23 02:19:02;;;;;;;8.00;7.30;;;;;;;21.36;91.22;96306.50;5098366;28;20424;-57
2021/06/23 02:21:30;;;;;;;8.70;8.00;;;;;;;21.39;90.94;96306.69;5096624;28;20235;-58
2021/06/23 02:23:56;;;;;;;8.60;7.90;;;;;;;21.37;91.54;96313.41;5098627;28;20459;-57
2021/06/23 02:26:22;;;;;;;8.20;7.60;;;;;;;21.40;91.03;96313.63;5116949;28;20928;-57
2021/06/23 02:28:48;;;;;;;7.50;6.90;;;;;;;21.32;91.83;96308.16;5117103;28;20181;-57
2021/06/23 02:31:14;;;;;;;8.30;7.60;;;;;;;21.34;91.67;96312.13;5117037;28;20444;-57
2021/06/23 02:33:41;;;;;;;8.20;7.60;;;;;;;21.38;91.47;96312.31;5116147;28;20276;-57
2021/06/23 02:36:07;;;;;;;8.13;7.43;;;;;;;21.38;90.70;96309.66;5096611;28;20914;-57
2021/06/23 02:38:32;;;;;;;9.00;8.20;;;;;;;21.31;90.84;96302.03;5096445;28;20430;-57
2021/06/23 02:40:58;;;;;;;9.07;8.17;;;;;;;21.27;91.19;96308.28;5096449;28;20166;-57
2021/06/23 02:43:24;;;;;;;9.87;9.07;;;;;;;21.27;91.65;96302.91;5095923;28;20684;-57
2021/06/23 02:45:49;;;;;;;9.70;8.90;;;;;;;21.33;91.52;96302.53;5113780;28;20643;-57
2021/06/23 02:48:15;;;;;;;9.70;8.90;;;;;;;21.22;91.81;96308.34;5116767;28;20233;-56
2021/06/23 02:50:58;;;;;;;9.00;8.27;;;;;;;21.21;91.40;96309.44;5116461;28;20166;-58
2021/06/23 02:53:23;;;;;;;8.30;7.60;;;;;;;21.10;91.53;96316.03;5105407;28;20614;-58
2021/06/23 02:55:49;;;;;;;7.63;6.93;;;;;;;21.02;91.50;96314.81;5109285;28;20506;-57
2021/06/23 02:58:15;;;;;;;6.97;6.00;;;;;;;20.89;91.37;96325.44;5116623;28;20256;-57
2021/06/23 03:00:41;;;;;;;7.13;5.70;;;;;;;20.83;91.26;96322.06;5116421;28;20242;-58
2021/06/23 03:03:07;;;;;;;6.13;5.53;;;;;;;20.86;91.00;96326.00;5109886;28;20869;-57
2021/06/23 03:05:32;;;;;;;5.57;5.07;;;;;;;20.85;90.98;96327.09;5094683;28;20220;-58
2021/06/23 03:07:58;;;;;;;5.90;5.50;;;;;;;20.84;91.24;96326.31;5096296;28;20195;-57
2021/06/23 03:10:23;;;;;;;5.00;4.60;;;;;;;20.82;90.77;96330.34;5095801;28;20644;-58
2021/06/23 03:12:49;;;;;;;4.80;4.47;;;;;;;20.82;90.94;96338.34;5100378;28;20253;-57
2021/06/23 03:15:14;;;;;;;4.87;4.57;;;;;;;20.88;90.94;96337.19;5116031;28;20166;-58
2021/06/23 03:17:40;;;;;;;5.17;4.77;;;;;;;20.92;91.05;96341.69;5116200;28;20182;-57
2021/06/23 03:20:07;;;;;;;4.10;3.80;;;;;;;20.99;90.70;96335.97;5115930;28;20173;-58
2021/06/23 03:22:32;;;;;;;5.63;4.10;;;;;;;21.00;90.61;96338.38;5113724;28;20173;-58
2021/06/23 03:24:58;;;;;;;4.83;4.47;;;;;;;21.02;90.26;96341.53;5100978;28;20978;-58
2021/06/23 03:27:23;;;;;;;4.43;4.03;;;;;;;21.07;89.87;96335.34;5116004;28;20177;-58
2021/06/23 03:29:49;;;;;;;4.30;4.00;;;;;;;21.09;89.43;96339.28;5115870;28;20172;-58
2021/06/23 03:32:14;;;;;;;4.63;4.33;;;;;;;21.15;89.01;96340.00;5115395;28;20227;-58
2021/06/23 03:34:39;;;;;;;4.17;3.87;;;;;;;21.09;89.49;96347.31;5096259;28;20202;-58
2021/06/23 03:37:06;;;;;;;4.60;4.20;;;;;;;21.02;89.62;96354.09;5095240;28;20166;-57
2021/06/23 03:39:32;;;;;;;3.80;3.53;;;;;;;21.03;89.40;96348.50;5095210;28;20189;-57
2021/06/23 03:41:58;;;;;;;4.60;3.73;;;;;;;21.04;89.62;96347.38;5094883;28;20416;-58
2021/06/23 03:44:23;;;;;;;3.73;3.47;;;;;;;21.04;89.74;96354.59;5111397;28;20465;-58
2021/06/23 03:46:49;;;;;;;5.40;3.90;;;;;;;21.01;90.24;96357.88;5115411;28;20185;-58
2021/06/23 03:49:14;;;;;;;3.77;3.57;;;;;;;21.10;89.70;96346.22;5115603;28;20181;-57
2021/06/23 03:51:40;;;;;;;3.53;3.20;;;;;;;21.12;89.72;96353.97;5115182;28;20176;-58
2021/06/23 03:54:06;;;;;;;6.73;3.50;;;;;;;21.09;89.74;96355.31;5101645;28;20204;-58
2021/06/23 03:56:31;;;;;;;4.37;3.97;;;;;;;21.15;89.26;96356.84;5114261;28;20522;-57
2021/06/23 03:58:57;;;;;;;4.00;3.70;;;;;;;21.21;89.03;96366.38;5115392;28;20181;-58
2021/06/23 04:01:22;;;;;;;5.87;4.63;;;;;;;21.09;89.41;96366.00;5114596;28;20169;-58
2021/06/23 04:03:47;;;;;;;5.83;5.37;;;;;;;20.99;90.27;96368.03;5114576;28;20276;-58
2021/06/23 04:06:13;;;;;;;4.53;4.17;;;;;;;21.08;90.33;96371.66;5115057;28;20647;-58
2021/06/23 04:08:38;;;;;;;7.70;6.10;;;;;;;21.08;90.42;96374.31;5115091;28;20215;-58
2021/06/23 04:11:04;;;;;;;7.00;6.40;;;;;;;21.13;90.40;96371.56;5114879;28;20173;-57
2021/06/23 04:13:29;;;;;;;6.20;5.60;;;;;;;21.18;90.31;96374.94;5104137;28;20199;-58
2021/06/23 04:15:54;;;;;;;5.97;5.57;;;;;;;21.13;90.26;96375.03;5114792;28;20172;-57
2021/06/23 04:18:20;;;;;;;7.43;6.73;;;;;;;21.13;90.47;96366.22;5114602;28;20201;-57
2021/06/23 04:20:46;;;;;;;6.97;6.27;;;;;;;21.09;90.96;96370.56;5115073;28;20256;-58
2021/06/23 04:23:11;;;;;;;7.70;7.10;;;;;;;21.04;91.38;96371.44;5096292;28;20213;-57
2021/06/23 04:25:36;;;;;;;7.33;6.63;;;;;;;21.11;91.10;96373.72;5094597;28;20198;-58
2021/06/23 04:28:02;;;;;;;7.80;7.10;;;;;;;21.12;90.69;96365.44;5094384;28;20212;-58
2021/06/23 04:30:27;;;;;;;7.70;6.87;;;;;;;21.24;90.19;96370.31;5094225;28;20182;-58
2021/06/23 04:32:53;;;;;;;7.03;6.43;;;;;;;21.34;89.32;96372.84;5099056;28;20174;-56
2021/06/23 04:35:18;;;;;;;8.00;7.27;;;;;;;21.16;90.77;96381.69;5114407;28;20173;-58
2021/06/23 04:37:44;;;;;;;7.00;6.10;;;;;;;21.20;90.62;96380.81;5112494;28;20181;-58
2021/06/23 04:40:12;;;;;;;3.70;3.40;;;;;;;21.17;88.39;96389.41;5107486;28;20178;-58
2021/06/23 04:42:39;;;;;;;4.00;3.60;;;;;;;21.23;87.75;96388.22;5093852;28;20533;-57
2021/06/23 04:45:07;;;;;;;3.63;3.43;;;;;;;21.07;87.78;96386.88;5094109;28;20914;-57
2021/06/23 04:47:33;;;;;;;3.67;3.37;;;;;;;21.14;87.53;96383.88;5093827;28;20408;-58
2021/06/23 04:49:58;;;;;;;3.97;3.67;;;;;;;21.25;87.33;96395.97;5098001;28;20411;-57
2021/06/23 04:52:24;;;;;;;2.80;2.60;;;;;;;20.91;85.29;96387.38;5113815;28;20437;-58
2021/06/23 04:54:50;;;;;;;2.70;2.50;;;;;;;21.02;85.82;96395.00;5114011;28;20190;-56
2021/06/23 04:57:15;;;;;;;2.00;1.90;;;;;;;20.97;84.40;96388.91;5114123;28;20166;-56
2021/06/23 04:59:41;;;;;;;2.13;1.93;;;;;;;20.89;83.29;96390.34;5113429;28;20185;-58
2021/06/23 05:02:06;;;;;;;2.17;1.93;;;;;;;20.91;82.30;96390.03;5113780;28;20165;-58
2021/06/23 05:04:33;;;;;;;2.00;1.90;;;;;;;20.74;82.89;96384.44;5114032;28;20287;-57
2021/06/23 05:07:02;;;;;;;4.00;1.70;;;;;;;20.91;82.92;96384.69;5114116;28;20173;-56
2021/06/23 05:09:27;;;;;;;1.80;1.70;;;;;;;20.97;84.87;96383.56;5113978;28;20418;-58
2021/06/23 05:11:52;;;;;;;2.43;1.70;;;;;;;21.10;84.73;96382.84;5094018;28;20538;-58
2021/06/23 05:14:18;;;;;;;2.33;1.70;;;;;;;21.09;82.85;96381.25;5093684;28;20224;-58
2021/06/23 05:16:47;;;;;;;1.73;1.63;;;;;;;21.07;82.31;96383.44;5093861;28;20674;-57
2021/06/23 05:19:13;;;;;;;1.57;1.47;;;;;;;21.09;83.15;96387.41;5093570;28;20165;-58
2021/06/23 05:21:38;;;;;;;2.10;2.00;;;;;;;21.20;83.29;96383.47;5109090;28;20419;-58
2021/06/23 05:24:05;;;;;;;1.70;1.60;;;;;;;21.25;84.00;96380.72;5113819;28;20484;-57
2021/06/23 05:26:30;;;;;;;1.93;1.80;;;;;;;21.21;83.79;96386.94;5114072;28;20173;-57
2021/06/23 05:28:56;;;;;;;3.90;1.90;;;;;;;21.01;82.75;96397.97;5113359;28;20408;-57
2021/06/23 05:31:22;;;;;;;1.70;1.60;;;;;;;21.12;83.36;96392.19;5082277;28;20204;-58
2021/06/23 05:33:47;;;;;;;1.87;1.70;;;;;;;21.05;82.16;96404.31;5092904;28;20229;-58
2021/06/23 05:36:13;;;;;;;1.83;1.73;;;;;;;20.92;82.51;96403.13;5093815;28;20258;-57
2021/06/23 05:38:38;;;;;;;1.43;1.43;;;;;;;20.93;82.58;96406.59;5093204;28;20217;-58
2021/06/23 05:41:04;;;;;;;1.73;1.60;;;;;;;21.01;83.01;96411.31;5101326;28;20182;-57
2021/06/23 05:43:29;;;;;;;1.60;1.50;;;;;;;21.07;82.30;96410.94;5106082;28;20548;-57
2021/06/23 05:45:55;;;;;;;1.60;1.50;;;;;;;20.98;82.12;96412.66;5113568;28;20188;-58
2021/06/23 05:48:20;;;;;;;1.90;1.80;;;;;;;21.03;82.56;96415.31;5113685;28;20169;-58
2021/06/23 05:50:46;;;;;;;2.03;1.80;;;;;;;20.88;82.99;96409.34;5104193;28;20279;-57
2021/06/23 05:53:11;;;;;;;2.43;2.07;;;;;;;20.87;83.79;96416.53;5074627;28;20209;-56
2021/06/23 05:55:39;;;;;;;2.53;2.03;;;;;;;21.00;83.45;96415.06;5104848;28;20566;-56
2021/06/23 05:58:05;;;;;;;2.20;2.10;;;;;;;21.17;82.67;96413.47;5113391;28;20634;-58
2021/06/23 06:00:30;;;;;;;2.20;2.10;;;;;;;21.31;83.25;96414.31;5113019;28;20457;-58
2021/06/23 06:02:56;;;;;;;2.37;2.27;;;;;;;21.49;82.50;96421.50;5094792;28;20165;-58
2021/06/23 06:05:21;;;;;;;2.53;2.43;;;;;;;21.60;83.61;96430.13;5113445;28;20532;-56
2021/06/23 06:07:48;;;;;;;2.93;2.70;;;;;;;21.73;82.20;96429.38;5078536;28;20396;-58
2021/06/23 06:10:13;;;;;;;3.70;3.40;;;;;;;21.69;81.40;96438.28;5108988;28;20173;-57
2021/06/23 06:12:39;;;;;;;4.70;3.50;;;;;;;21.56;83.05;96439.84;5092632;28;20404;-57
2021/06/23 06:15:06;;;;;;;5.80;2.40;;;;;;;21.59;83.49;96444.63;5093181;28;20201;-58
2021/06/23 06:17:31;;;;;;;2.20;2.10;;;;;;;21.58;82.50;96447.59;5092878;28;20176;-58
2021/06/23 06:19:57;;;;;;;2.57;2.37;;;;;;;21.61;81.91;96447.78;5094193;28;20487;-58
2021/06/23 06:22:24;;;;;;;2.80;2.60;;;;;;;21.80;80.85;96445.88;5112801;28;20177;-58
2021/06/23 06:24:49;;;;;;;2.67;2.47;;;;;;;21.47;82.02;96445.06;5094950;28;20267;-56
2021/06/23 06:27:15;;;;;;;3.13;2.87;;;;;;;21.45;83.08;96446.47;5113381;28;20439;-58
2021/06/23 06:29:40;;;;;;;3.47;3.27;;;;;;;21.44;83.47;96459.03;5113120;28;20176;-57
2021/06/23 06:32:06;;;;;;;3.67;3.00;;;;;;;21.55;83.18;96448.97;5094202;28;20223;-56
2021/06/23 06:34:31;;;;;;;4.30;2.80;;;;;;;21.73;82.49;96445.44;5092833;28;20682;-57
2021/06/23 06:36:57;;;;;;;3.20;3.00;;;;;;;21.65;83.55;96453.34;5092833;28;20611;-59
2021/06/23 06:39:22;;;;;;;3.33;2.70;;;;;;;21.51;83.64;96447.94;5092941;28;20205;-58
2021/06/23 06:41:47;;;;;;;3.47;3.20;;;;;;;21.65;82.20;96454.13;5104536;28;20186;-59
2021/06/23 06:44:13;;;;;;;3.37;3.17;;;;;;;21.51;83.38;96450.63;5105964;28;20231;-59
2021/06/23 06:46:38;;;;;;;3.00;2.70;;;;;;;21.72;82.60;96451.91;5116628;28;20252;-58
2021/06/23 06:49:04;;;;;;;3.53;3.23;;;;;;;21.75;82.30;96447.81;5098442;28;20173;-59
2021/06/23 06:51:30;;;;;;;3.67;3.47;;;;;;;21.78;80.64;96449.91;5103380;28;20582;-59
2021/06/23 06:53:56;;;;;;;3.30;3.00;;;;;;;21.56;81.87;96447.84;5095994;28;20194;-58
2021/06/23 06:56:21;;;;;;;3.30;3.10;;;;;;;21.54;81.78;96443.91;5114114;28;20506;-58
2021/06/23 06:58:47;;;;;;;3.40;3.10;;;;;;;21.78;81.44;96450.69;5116521;28;20288;-58
2021/06/23 07:01:12;;;;;;;3.60;3.40;;;;;;;21.78;81.51;96449.91;5116031;28;20627;-58
2021/06/23 07:03:38;;;;;;;3.00;2.80;;;;;;;21.90;80.64;96448.41;5115777;28;20208;-58
2021/06/23 07:06:04;;;;;;;2.70;2.60;;;;;;;22.13;81.18;96446.63;5116206;28;20260;-59
2021/06/23 07:08:29;;;;;;;4.67;3.27;;;;;;;22.31;80.41;96454.56;5116182;28;20172;-59
2021/06/23 07:10:54;;;;;;;4.23;3.10;;;;;;;22.15;78.02;96453.28;5109487;28;20239;-59
2021/06/23 07:13:20;;;;;;;3.37;3.17;;;;;;;22.29;78.39;96455.94;5095391;28;20268;-59
2021/06/23 07:15:45;;;;;;;2.70;2.50;;;;;;;22.59;78.74;96458.06;5095895;28;20174;-59
2021/06/23 07:18:10;;;;;;;2.80;2.60;;;;;;;22.81;80.13;96457.34;5106968;28;20252;-58
2021/06/23 07:20:36;;;;;;;3.03;2.67;;;;;;;22.91;81.10;96465.16;5116141;28;20227;-59
2021/06/23 07:23:01;;;;;;;2.77;2.47;;;;;;;23.02;80.85;96459.28;5115753;28;20211;-59
2021/06/23 07:25:28;;;;;;;3.10;2.90;;;;;;;23.10;81.95;96465.84;5116126;28;20359;-59
2021/06/23 07:27:53;;;;;;;3.90;2.83;;;;;;;23.29;80.78;96464.59;5112329;28;20200;-59
2021/06/23 07:30:19;;;;;;;2.57;2.37;;;;;;;23.48;79.54;96467.09;5116031;28;20834;-59
2021/06/23 07:32:57;;;;;;;5.73;2.73;;;;;;;23.55;75.56;96461.31;5115610;28;20252;-59
2021/06/23 07:38:08;;;;;;;3.53;3.23;;;;;;;23.42;72.60;96469.13;5116061;28;20430;-58
2021/06/23 07:43:10;;;;;;;3.23;2.93;;;;;;;23.38;73.42;96468.16;5115389;28;20455;-58
2021/06/23 07:45:36;;;;;;;2.50;2.40;;;;;;;23.44;74.46;96466.91;5105675;28;20435;-59
2021/06/23 07:48:02;;;;;;;3.03;2.60;;;;;;;23.51;72.07;96471.88;5114626;28;20427;-58
2021/06/23 07:50:34;;;;;;;2.77;2.17;;;;;;;23.67;72.03;96467.72;5115408;28;20403;-57
2021/06/23 07:53:57;;;;;;;2.70;2.00;;;;;;;23.70;73.75;96461.72;5114245;28;20158;-58
2021/06/23 08:11:39;;;;;;;3.50;3.20;;;;;;;24.08;74.80;96479.03;5090622;28;20965;-58
2021/06/23 08:14:04;;;;;;;2.83;2.60;;;;;;;24.06;76.22;96467.81;5089875;28;20537;-61
2021/06/23 08:16:35;;;;;;;3.30;2.70;;;;;;;24.09;77.59;96480.63;5091317;28;20443;-59
2021/06/23 08:19:00;;;;;;;3.10;2.80;;;;;;;24.29;77.79;96468.56;5062846;28;20185;-59
2021/06/23 08:21:26;;;;;;;3.50;3.30;;;;;;;24.23;79.17;96469.78;5079421;28;21144;-59
2021/06/23 08:23:51;;;;;;;4.20;3.90;;;;;;;24.40;77.68;96469.88;5077358;28;20665;-61
2021/06/23 08:26:17;;;;;;;4.13;3.73;;;;;;;24.34;78.02;96463.84;5077528;28;20209;-57
2021/06/23 08:28:42;;;;;;;3.87;3.47;;;;;;;24.40;76.67;96465.28;5080337;28;20186;-57
2021/06/23 08:31:08;;;;;;;7.13;3.60;;;;;;;24.45;76.34;96467.03;5081762;28;20178;-57
2021/06/23 08:33:34;;;;;;;3.77;3.47;;;;;;;24.53;75.81;96460.13;5081480;28;20190;-56
2021/06/23 08:35:59;;;;;;;5.10;3.43;;;;;;;24.62;75.77;96459.03;5079832;28;20202;-59
2021/06/23 08:38:24;;;;;;;3.10;2.80;;;;;;;24.79;75.37;96467.16;5075021;28;20241;-59
2021/06/23 08:40:50;;;;;;;4.73;4.33;;;;;;;24.81;74.32;96467.66;5087800;28;20185;-58
2021/06/23 08:43:18;;;;;;;5.00;4.10;;;;;;;25.08;75.02;96464.69;5089418;28;20206;-60
2021/06/23 08:45:44;;;;;;;8.90;7.20;;;;;;;25.29;73.91;96448.72;5090482;28;20629;-59
2021/06/23 08:48:10;;;;;;;3.77;3.47;;;;;;;25.30;73.36;96456.47;5080295;28;20420;-58
2021/06/23 08:50:36;;;;;;;7.70;4.50;;;;;;;25.34;71.81;96451.25;5093565;28;20404;-60
2021/06/23 08:53:02;;;;;;;4.23;3.83;;;;;;;25.16;71.47;96449.66;5073558;28;20891;-59
2021/06/23 08:55:27;;;;;;;5.67;3.50;;;;;;;25.27;71.31;96456.31;5083768;28;20637;-60
2021/06/23 08:57:53;;;;;;;4.57;4.17;;;;;;;25.28;71.22;96453.31;5085010;28;20178;-59
2021/06/23 09:00:20;;;;;;;5.00;4.50;;;;;;;25.00;70.85;96454.69;5094028;28;20261;-58
2021/06/23 09:02:46;;;;;;;4.20;3.83;;;;;;;25.12;70.53;96454.09;5092581;28;20211;-58
2021/06/23 09:05:14;;;;;;;2.77;2.40;;;;;;;25.23;71.69;96455.34;5093444;28;20460;-59
2021/06/23 09:07:48;;;;;;;2.60;2.40;;;;;;;25.15;70.65;96453.44;5087500;28;20825;-58
2021/06/23 09:10:22;;;;;;;3.30;3.00;;;;;;;24.80;74.93;96454.53;5073662;28;20405;-58
2021/06/23 09:13:08;;;;;;;11.20;3.10;;;;;;;25.04;72.74;96452.16;5073078;28;20437;-59
2021/06/23 09:15:39;;;;;;;3.47;2.67;;;;;;;25.18;72.02;96440.16;5073465;28;20984;-59
2021/06/23 09:18:20;;;;;;;4.70;2.80;;;;;;;25.23;73.19;96436.53;5082480;28;20428;-59
2021/06/23 09:20:50;;;;;;;3.27;2.97;;;;;;;25.15;71.74;96437.31;5093784;28;20407;-59
2021/06/23 09:23:15;;;;;;;3.00;2.70;;;;;;;25.07;71.60;96441.59;5093179;28;20456;-59
2021/06/23 09:25:45;;;;;;;4.83;2.97;;;;;;;25.11;70.50;96441.75;5093671;28;20917;-58
2021/06/23 09:28:18;;;;;;;2.57;2.37;;;;;;;25.11;71.09;96444.44;5083380;28;20179;-58
2021/06/23 09:30:47;;;;;;;2.50;2.20;;;;;;;25.16;71.53;96441.59;5073346;28;20762;-58
2021/06/23 09:33:26;;;;;;;3.10;2.77;;;;;;;24.99;71.70;96445.06;5055118;28;20436;-59
2021/06/23 09:36:01;;;;;;;5.03;3.60;;;;;;;25.03;71.95;96439.84;5073278;28;20407;-59
2021/06/23 09:38:50;;;;;;;3.20;2.60;;;;;;;24.94;71.71;96445.22;5084892;28;20427;-59
2021/06/23 09:41:30;;;;;;;3.10;2.90;;;;;;;24.95;70.85;96446.78;5075686;28;20765;-59
2021/06/23 09:44:08;;;;;;;3.50;3.27;;;;;;;24.82;72.46;96446.94;5093557;28;20954;-58
2021/06/23 09:46:40;;;;;;;6.07;3.00;;;;;;;24.82;72.66;96452.31;5093594;28;20414;-58
2021/06/23 09:49:23;;;;;;;3.50;3.30;;;;;;;24.80;72.07;96451.84;5083994;28;20465;-58
2021/06/23 09:51:48;;;;;;;3.40;3.10;;;;;;;24.80;71.88;96452.63;5081961;28;20915;-59
2021/06/23 09:54:16;;;;;;;3.70;3.40;;;;;;;24.84;71.70;96450.09;5072883;28;20444;-58
2021/06/23 09:56:45;;;;;;;3.93;2.90;;;;;;;24.87;72.91;96439.50;5072790;28;20175;-58
2021/06/23 09:59:24;;;;;;;2.60;2.50;;;;;;;24.85;73.53;96449.00;5088995;28;20422;-58
2021/06/23 10:01:50;;;;;;;3.40;3.10;;;;;;;24.65;73.70;96452.22;5092665;28;20503;-58
2021/06/23 10:04:15;;;;;;;4.97;3.60;;;;;;;24.76;73.93;96448.97;5092977;28;20606;-59
2021/06/23 10:06:44;;;;;;;3.53;3.33;;;;;;;24.81;72.39;96459.59;5092927;28;20556;-58
2021/06/23 10:09:20;;;;;;;2.73;2.63;;;;;;;24.88;72.02;96449.16;5077725;28;20174;-58
2021/06/23 10:11:47;;;;;;;3.20;3.00;;;;;;;24.93;74.02;96450.91;5072880;28;20934;-58
2021/06/23 10:14:13;;;;;;;3.20;3.00;;;;;;;25.00;74.88;96448.53;5072833;28;20950;-59
2021/06/23 10:16:39;;;;;;;2.90;2.70;;;;;;;25.07;73.95;96446.19;5076351;28;20416;-58
2021/06/23 10:19:06;;;;;;;3.00;2.80;;;;;;;25.05;72.03;96437.63;5079345;28;20171;-58
2021/06/23 10:21:32;;;;;;;2.60;2.40;;;;;;;25.11;72.43;96441.75;5058110;28;20537;-59
2021/06/23 10:23:58;;;;;;;2.50;2.30;;;;;;;25.21;72.94;96430.66;5076433;28;20456;-58
2021/06/23 10:26:28;;;;;;;3.10;2.40;;;;;;;25.30;71.85;96426.06;5076721;28;20736;-58
2021/06/23 10:28:55;;;;;;;2.50;2.40;;;;;;;25.56;72.32;96431.47;5088737;28;20420;-59
2021/06/23 10:31:25;;;;;;;2.50;2.30;;;;;;;25.76;73.63;96430.81;5096569;28;20412;-59
2021/06/23 10:33:52;;;;;;;2.33;1.93;;;;;;;25.99;71.56;96427.56;5096372;28;20416;-58
2021/06/23 10:36:19;;;;;;;2.03;1.93;;;;;;;26.21;71.58;96415.78;5096479;28;20411;-58
2021/06/23 10:38:46;;;;;;;2.90;1.97;;;;;;;26.48;66.60;96420.72;5084843;28;20460;-59
2021/06/23 10:41:12;;;;;;;1.83;1.73;;;;;;;26.57;65.74;96410.69;5076058;28;20508;-58
2021/06/23 10:43:38;;;;;;;2.03;1.87;;;;;;;26.76;65.50;96407.59;5075369;28;20531;-59
2021/06/23 10:46:03;;;;;;;1.50;1.40;;;;;;;27.04;64.14;96406.75;5075857;28;20921;-59
2021/06/23 10:48:29;;;;;;;1.63;1.53;;;;;;;27.34;65.15;96402.06;5083781;28;20416;-58
2021/06/23 10:50:54;;;;;;;4.03;1.60;;;;;;;27.37;62.59;96414.94;5096250;28;20170;-58
2021/06/23 10:53:35;;;;;;;1.67;1.47;;;;;;;27.55;60.73;96410.16;5095670;28;20194;-59
2021/06/23 10:56:03;;;;;;;1.50;1.40;;;;;;;27.56;57.83;96422.56;5096260;28;20178;-59
2021/06/23 10:58:31;;;;;;;1.53;1.40;;;;;;;27.46;55.94;96418.34;5088088;28;20424;-59
2021/06/23 11:01:13;;;;;;;1.43;1.37;;;;;;;27.55;58.85;96415.56;5092973;28;20427;-58
2021/06/23 11:03:58;;;;;;;1.20;1.10;;;;;;;27.40;62.01;96409.66;5087770;28;20459;-58
2021/06/23 11:06:46;;;;;;;1.13;1.13;;;;;;;27.78;58.36;96409.44;5077625;28;20412;-58
2021/06/23 11:09:21;;;;;;;1.73;1.60;;;;;;;28.00;59.25;96417.19;5090797;28;20432;-57
2021/06/23 11:11:47;;;;;;;2.67;0.90;;;;;;;28.17;54.64;96425.06;5095236;28;20420;-59
2021/06/23 11:14:17;;;;;;;0.80;0.80;;;;;;;28.23;53.21;96426.44;5095639;28;20424;-57
2021/06/23 11:16:42;;;;;;;0.97;0.90;;;;;;;27.81;52.17;96416.09;5092362;28;20170;-58
2021/06/23 11:19:09;;;;;;;0.60;0.60;;;;;;;27.88;48.59;96417.13;5061059;28;20474;-58
2021/06/23 11:21:34;;;;;;;0.90;0.90;;;;;;;27.99;53.12;96414.81;5082251;28;20710;-58
2021/06/23 11:24:11;;;;;;;0.80;0.80;;;;;;;28.20;49.08;96413.59;5091925;28;20460;-58
2021/06/23 11:26:38;;;;;;;0.70;0.50;;;;;;;28.18;45.54;96406.94;5090953;28;20172;-57
2021/06/23 11:29:09;;;;;;;3.83;1.20;;;;;;;27.94;45.57;96407.69;5079295;28;20439;-58
2021/06/23 11:31:54;;;;;;;0.77;0.77;;;;;;;28.15;49.89;96408.41;5087491;28;20945;-58
2021/06/23 11:34:43;;;;;;;0.63;0.60;;;;;;;28.31;49.04;96409.34;5057067;28;21001;-57
2021/06/23 11:37:18;;;;;;;0.50;0.50;;;;;;;28.39;48.23;96402.25;5071474;28;20409;-58
2021/06/23 11:39:44;;;;;;;0.60;0.60;;;;;;;28.43;44.97;96401.22;5073262;28;20452;-57
2021/06/23 11:42:11;;;;;;;0.60;0.60;;;;;;;28.27;48.18;96396.81;5071013;28;20449;-58
2021/06/23 11:44:39;;;;;;;1.87;1.00;;;;;;;28.31;48.81;96387.69;5071160;28;20209;-58
2021/06/23 11:47:05;;;;;;;0.80;0.80;;;;;;;28.46;46.93;96397.06;5053432;28;20421;-58
2021/06/23 11:49:33;;;;;;;0.80;0.63;;;;;;;28.66;48.88;96390.75;5085890;28;20477;-57
2021/06/23 11:51:59;;;;;;;1.03;0.93;;;;;;;28.88;47.31;96395.66;5090602;28;20420;-58
2021/06/23 11:54:24;;;;;;;0.87;0.60;;;;;;;28.69;41.28;96400.09;5091222;28;20554;-58
2021/06/23 11:56:49;;;;;;;0.50;0.50;;;;;;;28.92;42.49;96401.97;5091502;28;20174;-57
2021/06/23 11:59:15;;;;;;;0.70;0.70;;;;;;;28.86;43.08;96394.44;5071342;28;20567;-58